createdAt,value
2017-07-17T00:01:56.389Z,3.10
2017-07-17T00:04:23.854Z,4.13
2017-07-17T00:06:51.394Z,3.63
2017-07-17T00:09:18.869Z,3.63
2017-07-17T00:11:46.406Z,2.83
2017-07-17T00:14:13.970Z,3.27
2017-07-17T00:16:41.787Z,3.40
2017-07-17T00:19:09.294Z,2.70
2017-07-17T00:21:36.845Z,3.10
2017-07-17T00:24:04.329Z,2.90
2017-07-17T00:26:31.797Z,3.67
2017-07-17T00:28:59.322Z,3.93
2017-07-17T00:31:26.785Z,2.53
2017-07-17T00:33:54.283Z,3.30
2017-07-17T00:36:21.793Z,3.30
2017-07-17T00:38:49.285Z,2.80
2017-07-17T00:41:16.834Z,3.10
2017-07-17T00:43:44.370Z,2.70
2017-07-17T00:46:11.871Z,2.90
2017-07-17T00:48:39.358Z,2.87
2017-07-17T00:51:06.817Z,2.47
2017-07-17T00:53:34.336Z,2.83
2017-07-17T00:56:01.857Z,3.30
2017-07-17T00:58:29.415Z,3.17
2017-07-17T01:00:56.989Z,3.20
2017-07-17T01:03:24.542Z,3.33
2017-07-17T01:05:52.030Z,3.00
2017-07-17T01:08:19.499Z,3.40
2017-07-17T01:10:46.983Z,4.60
2017-07-17T01:13:14.450Z,3.63
2017-07-17T01:15:42.283Z,2.97
2017-07-17T01:18:09.745Z,3.20
2017-07-17T01:20:37.229Z,2.83
2017-07-17T01:23:04.693Z,3.13
2017-07-17T01:25:32.286Z,3.80
2017-07-17T01:27:59.981Z,3.77
2017-07-17T01:30:27.514Z,3.80
2017-07-17T01:32:55.010Z,3.77
2017-07-17T01:35:22.477Z,3.80
2017-07-17T01:37:50.053Z,3.43
2017-07-17T01:40:18.049Z,3.83
2017-07-17T01:42:45.562Z,3.90
2017-07-17T01:45:13.031Z,4.20
2017-07-17T01:47:40.514Z,3.00
2017-07-17T01:50:07.998Z,3.97
2017-07-17T01:52:35.634Z,3.53
2017-07-17T01:55:03.158Z,3.03
2017-07-17T01:57:30.761Z,3.10
2017-07-17T01:59:58.233Z,3.23
2017-07-17T02:02:25.842Z,3.10
2017-07-17T02:04:54.070Z,3.60
2017-07-17T02:07:21.569Z,3.50
2017-07-17T02:09:49.058Z,3.53
2017-07-17T02:12:16.585Z,2.87
2017-07-17T02:14:44.070Z,3.87
2017-07-17T02:17:11.986Z,4.93
2017-07-17T02:19:39.469Z,4.23
2017-07-17T02:22:07.025Z,4.27
2017-07-17T02:24:34.545Z,3.90
2017-07-17T02:27:02.014Z,4.70
2017-07-17T02:29:29.850Z,3.50
2017-07-17T02:31:57.402Z,3.70
2017-07-17T02:34:24.901Z,3.03
2017-07-17T02:36:52.382Z,3.73
2017-07-17T02:39:19.897Z,4.20
2017-07-17T02:41:47.402Z,4.20
2017-07-17T02:44:14.909Z,3.47
2017-07-17T02:46:42.382Z,4.17
2017-07-17T02:49:09.854Z,3.70
2017-07-17T02:51:37.345Z,4.50
2017-07-17T02:54:05.170Z,3.73
2017-07-17T02:56:32.698Z,4.00
2017-07-17T02:59:00.200Z,3.83
2017-07-17T03:01:27.686Z,3.63
2017-07-17T03:03:55.173Z,4.03
2017-07-17T03:06:22.694Z,3.70
2017-07-17T03:08:50.163Z,3.47
2017-07-17T03:11:17.724Z,3.23
2017-07-17T03:13:45.264Z,3.10
2017-07-17T03:16:12.765Z,3.47
2017-07-17T03:18:40.238Z,3.17
2017-07-17T03:21:07.721Z,3.63
2017-07-17T03:23:57.806Z,2.90
2017-07-17T03:26:25.366Z,3.60
2017-07-17T03:28:52.851Z,4.93
2017-07-17T03:31:20.381Z,4.33
2017-07-17T03:33:47.842Z,4.10
2017-07-17T03:36:15.331Z,3.63
2017-07-17T03:38:42.855Z,4.00
2017-07-17T03:41:10.410Z,3.80
2017-07-17T03:43:37.970Z,3.50
2017-07-17T03:46:05.536Z,4.43
2017-07-17T03:48:33.081Z,3.57
2017-07-17T03:51:00.545Z,4.33
2017-07-17T03:53:28.343Z,5.00
2017-07-17T03:55:55.836Z,4.57
2017-07-17T03:58:23.426Z,3.53
2017-07-17T04:00:50.981Z,5.33
2017-07-17T04:03:18.542Z,4.40
2017-07-17T04:05:46.009Z,4.50
2017-07-17T04:08:13.514Z,5.10
2017-07-17T04:10:41.013Z,3.70
2017-07-17T04:13:08.573Z,4.57
2017-07-17T04:15:36.173Z,3.47
2017-07-17T04:18:04.032Z,4.50
2017-07-17T04:20:31.567Z,4.27
2017-07-17T04:22:59.109Z,3.40
2017-07-17T04:25:26.597Z,3.53
2017-07-17T04:27:54.073Z,3.37
2017-07-17T04:30:22.110Z,3.57
2017-07-17T04:32:49.658Z,4.80
2017-07-17T04:35:17.149Z,3.80
2017-07-17T04:37:44.635Z,4.00
2017-07-17T04:40:12.233Z,5.03
2017-07-17T04:42:40.804Z,4.20
2017-07-17T04:45:08.370Z,4.53
2017-07-17T04:47:35.939Z,5.13
2017-07-17T04:50:03.532Z,5.50
2017-07-17T04:52:30.999Z,4.20
2017-07-17T04:54:59.105Z,5.00
2017-07-17T04:57:26.605Z,4.87
2017-07-17T04:59:54.203Z,4.67
2017-07-17T05:02:21.736Z,4.17
2017-07-17T05:04:49.282Z,5.60
2017-07-17T05:07:16.785Z,5.47
2017-07-17T05:09:44.303Z,4.73
2017-07-17T05:12:11.795Z,4.47
2017-07-17T05:14:39.286Z,5.40
2017-07-17T05:17:06.837Z,4.73
2017-07-17T05:19:34.303Z,4.07
2017-07-17T05:22:01.873Z,5.10
2017-07-17T05:24:29.351Z,4.20
2017-07-17T05:26:56.846Z,3.90
2017-07-17T05:29:24.326Z,4.53
2017-07-17T05:31:51.797Z,5.00
2017-07-17T05:34:19.289Z,4.00
2017-07-17T05:36:46.806Z,4.20
2017-07-17T05:39:14.295Z,5.57
2017-07-17T05:41:41.782Z,4.20
2017-07-17T05:44:09.421Z,4.77
2017-07-17T05:46:36.894Z,5.67
2017-07-17T05:49:04.389Z,5.67
2017-07-17T05:51:31.853Z,4.83
2017-07-17T05:53:59.407Z,5.43
2017-07-17T05:56:26.966Z,5.00
2017-07-17T05:58:54.565Z,4.47
2017-07-17T06:01:22.050Z,3.93
2017-07-17T06:03:49.513Z,5.10
2017-07-17T06:06:17.160Z,5.53
2017-07-17T06:08:44.665Z,4.73
2017-07-17T06:11:12.153Z,5.10
2017-07-17T06:13:39.617Z,4.70
2017-07-17T06:16:07.105Z,6.27
2017-07-17T06:18:34.641Z,4.80
2017-07-17T06:21:02.138Z,4.73
2017-07-17T06:23:29.705Z,5.23
2017-07-17T06:25:57.197Z,5.77
2017-07-17T06:28:24.658Z,4.90
2017-07-17T06:30:52.146Z,4.70
2017-07-17T06:33:19.628Z,4.97
2017-07-17T06:35:47.114Z,5.00
2017-07-17T06:38:14.590Z,5.10
2017-07-17T06:40:42.102Z,5.30
2017-07-17T06:43:09.562Z,5.10
2017-07-17T06:45:37.118Z,5.90
2017-07-17T06:48:04.682Z,5.63
2017-07-17T06:50:32.231Z,5.23
2017-07-17T06:52:59.731Z,5.10
2017-07-17T06:55:27.211Z,5.87
2017-07-17T06:57:54.715Z,6.03
2017-07-17T07:00:22.555Z,6.03
2017-07-17T07:02:50.049Z,5.40
2017-07-17T07:05:17.519Z,5.17
2017-07-17T07:07:45.071Z,6.87
2017-07-17T07:10:12.610Z,6.00
2017-07-17T07:12:40.162Z,6.00
2017-07-17T07:15:07.726Z,6.37
2017-07-17T07:17:35.279Z,5.80
2017-07-17T07:20:03.228Z,5.93
2017-07-17T07:22:30.754Z,6.00
2017-07-17T07:24:58.230Z,7.03
2017-07-17T07:27:25.860Z,5.97
2017-07-17T07:29:53.325Z,6.50
2017-07-17T07:32:20.795Z,6.60
2017-07-17T07:34:48.280Z,6.53
2017-07-17T07:37:15.751Z,5.43
2017-07-17T07:39:43.315Z,6.10
2017-07-17T07:42:10.789Z,5.87
2017-07-17T07:44:38.277Z,6.10
2017-07-17T07:47:05.784Z,7.43
2017-07-17T07:49:33.341Z,7.30
2017-07-17T07:52:00.885Z,5.60
2017-07-17T07:54:28.369Z,6.13
2017-07-17T07:56:55.838Z,5.93
2017-07-17T07:59:23.366Z,6.40
2017-07-17T08:01:50.838Z,6.00
2017-07-17T08:04:18.382Z,5.63
2017-07-17T08:06:45.970Z,6.10
2017-07-17T08:09:13.450Z,6.60
2017-07-17T08:11:40.957Z,6.03
2017-07-17T08:14:08.506Z,5.73
2017-07-17T08:16:36.018Z,5.80
2017-07-17T08:19:03.549Z,6.93
2017-07-17T08:21:31.136Z,5.17
2017-07-17T08:23:58.645Z,4.57
2017-07-17T08:26:26.143Z,5.57
2017-07-17T08:28:53.622Z,4.80
2017-07-17T08:31:21.226Z,5.13
2017-07-17T08:33:48.845Z,4.83
2017-07-17T08:36:16.341Z,5.50
2017-07-17T08:38:43.801Z,4.50
2017-07-17T08:41:11.298Z,5.00
2017-07-17T08:43:38.833Z,4.20
2017-07-17T08:46:06.885Z,5.03
2017-07-17T08:48:34.438Z,6.03
2017-07-17T08:51:02.214Z,5.10
2017-07-17T08:54:48.203Z,6.17
2017-07-17T08:57:15.758Z,5.83
2017-07-17T08:59:43.250Z,5.53
2017-07-17T09:02:10.931Z,4.97
2017-07-17T09:04:38.455Z,4.57
2017-07-17T09:07:05.946Z,5.40
2017-07-17T09:09:33.454Z,5.73
2017-07-17T09:12:01.009Z,5.90
2017-07-17T09:14:28.661Z,4.77
2017-07-17T09:16:56.235Z,4.20
2017-07-17T09:19:23.791Z,5.10
2017-07-17T09:21:51.345Z,5.10
2017-07-17T09:24:18.829Z,5.20
2017-07-17T09:26:46.290Z,4.37
2017-07-17T09:29:13.773Z,5.10
2017-07-17T09:31:41.237Z,5.50
2017-07-17T09:34:08.773Z,5.53
2017-07-17T09:36:36.236Z,5.17
2017-07-17T09:39:03.900Z,4.80
2017-07-17T09:41:31.361Z,5.10
2017-07-17T09:46:57.054Z,3.90
2017-07-17T09:49:24.596Z,4.80
2017-07-17T09:51:52.158Z,5.20
2017-07-17T09:54:19.641Z,5.10
2017-07-17T09:56:47.124Z,5.50
2017-07-17T09:59:14.627Z,6.00
2017-07-17T10:01:42.117Z,6.53
2017-07-17T10:04:09.604Z,4.77
2017-07-17T10:06:37.103Z,4.70
2017-07-17T10:09:04.625Z,5.83
2017-07-17T10:11:32.135Z,5.30
2017-07-17T10:13:59.598Z,4.77
2017-07-17T10:16:27.082Z,4.70
2017-07-17T10:18:54.550Z,5.33
2017-07-17T10:59:56.975Z,4.83
2017-07-17T11:02:24.465Z,4.73
2017-07-17T11:04:51.950Z,4.63
2017-07-17T11:07:19.481Z,4.70
2017-07-17T11:09:46.967Z,4.60
2017-07-17T11:12:14.454Z,4.47
2017-07-17T11:14:41.925Z,4.07
2017-07-17T11:17:09.609Z,4.70
2017-07-17T11:19:37.165Z,5.17
2017-07-17T11:22:04.769Z,4.50
2017-07-17T11:24:32.328Z,4.90
2017-07-17T11:26:59.889Z,5.17
2017-07-17T11:29:27.405Z,4.93
2017-07-17T11:31:54.930Z,5.10
2017-07-17T11:34:22.421Z,4.77
2017-07-17T11:36:49.881Z,4.40
2017-07-17T11:39:17.366Z,6.07
2017-07-17T11:41:44.833Z,4.20
2017-07-17T11:44:12.317Z,5.00
2017-07-17T11:56:51.038Z,5.30
2017-07-17T11:59:18.540Z,5.90
2017-07-17T12:01:46.001Z,5.37
2017-07-17T12:04:13.493Z,4.67
2017-07-17T12:06:40.958Z,4.60
2017-07-17T12:09:08.441Z,5.33
2017-07-17T12:11:35.897Z,5.70
2017-07-17T12:14:03.457Z,5.47
2017-07-17T12:16:30.915Z,5.90
2017-07-17T12:18:58.441Z,5.03
2017-07-17T12:21:25.997Z,5.00
2017-07-17T12:23:53.558Z,5.80
2017-07-17T12:26:21.054Z,5.37
2017-07-17T12:28:48.514Z,5.50
2017-07-17T12:31:16.038Z,4.87
2017-07-17T12:33:43.497Z,4.53
2017-07-17T12:36:10.994Z,5.80
2017-07-17T12:38:38.454Z,5.20
2017-07-17T12:41:05.971Z,5.20
2017-07-17T12:43:33.516Z,5.87
2017-07-17T12:46:01.025Z,4.33
2017-07-17T12:48:28.485Z,4.83
2017-07-17T12:50:56.033Z,4.50
2017-07-17T12:53:23.492Z,5.00
2017-07-17T12:55:51.006Z,3.80
2017-07-17T12:58:18.562Z,4.40
2017-07-17T13:00:46.066Z,4.87
2017-07-17T13:03:13.553Z,4.13
2017-07-17T13:05:41.054Z,3.90
2017-07-17T13:08:08.598Z,3.83
2017-07-17T13:10:36.165Z,4.03
2017-07-17T13:13:03.654Z,3.57
2017-07-17T13:15:31.777Z,4.67
2017-07-17T13:17:59.386Z,5.70
2017-07-17T13:20:26.845Z,4.47
2017-07-17T13:22:54.408Z,4.50
2017-07-17T13:25:21.914Z,5.53
2017-07-17T13:27:49.396Z,4.13
2017-07-17T13:30:16.930Z,5.00
2017-07-17T13:32:44.493Z,4.10
2017-07-17T13:35:12.070Z,5.70
2017-07-17T13:37:39.652Z,5.43
2017-07-17T13:40:07.287Z,5.10
2017-07-17T13:42:34.841Z,6.10
2017-07-17T13:45:02.377Z,6.03
2017-07-17T13:47:29.940Z,5.27
2017-07-17T13:49:57.445Z,6.07
2017-07-17T13:52:24.957Z,6.40
2017-07-17T13:54:52.412Z,6.83
2017-07-17T13:57:19.977Z,6.40
2017-07-17T13:59:47.537Z,6.50
2017-07-17T14:02:15.090Z,5.40
2017-07-17T14:04:42.644Z,6.50
2017-07-17T14:07:13.150Z,6.40
2017-07-17T14:09:40.763Z,5.60
2017-07-17T14:12:08.298Z,6.10
2017-07-17T14:14:35.852Z,6.27
2017-07-17T14:17:03.413Z,5.67
2017-07-17T14:19:30.894Z,6.60
2017-07-17T14:21:58.545Z,7.23
2017-07-17T14:24:26.089Z,5.70
2017-07-17T14:26:53.645Z,7.50
2017-07-17T14:29:21.137Z,7.97
2017-07-17T14:31:48.597Z,7.80
2017-07-17T14:34:16.121Z,8.27
2017-07-17T14:36:43.682Z,6.33
2017-07-17T14:39:11.237Z,7.63
2017-07-17T14:41:38.792Z,7.37
2017-07-17T14:44:06.270Z,7.27
2017-07-17T14:46:33.745Z,7.70
2017-07-17T14:49:01.221Z,7.37
2017-07-17T14:51:28.744Z,8.20
2017-07-17T14:53:56.255Z,7.60
2017-07-17T14:56:23.742Z,7.83
2017-07-17T14:58:51.297Z,7.63
2017-07-17T15:01:18.869Z,7.13
2017-07-17T15:03:46.325Z,7.90
2017-07-17T15:06:13.892Z,7.67
2017-07-17T15:08:41.353Z,8.00
2017-07-17T15:11:08.832Z,7.83
2017-07-17T15:13:36.409Z,8.03
2017-07-17T15:16:03.886Z,8.77
2017-07-17T15:18:31.362Z,8.03
2017-07-17T15:20:58.912Z,8.50
2017-07-17T15:23:27.344Z,7.27
2017-07-17T15:25:54.893Z,8.00
2017-07-17T15:28:22.366Z,8.80
2017-07-17T15:30:49.869Z,8.87
2017-07-17T15:33:17.432Z,7.93
2017-07-17T15:35:44.993Z,7.83
2017-07-17T15:38:12.546Z,9.03
2017-07-17T15:40:40.118Z,7.50
2017-07-17T15:43:07.662Z,8.00
2017-07-17T15:45:35.163Z,7.70
2017-07-17T15:48:02.686Z,7.07
2017-07-17T15:50:30.169Z,8.17
2017-07-17T15:52:57.702Z,7.90
2017-07-17T15:55:25.249Z,6.87
2017-07-17T15:57:52.709Z,7.00
2017-07-17T16:00:20.270Z,6.83
2017-07-17T16:02:47.758Z,7.30
2017-07-17T16:05:15.326Z,6.70
2017-07-17T16:07:42.837Z,6.87
2017-07-17T16:10:10.412Z,7.40
2017-07-17T16:12:37.962Z,8.23
2017-07-17T16:15:05.600Z,8.03
2017-07-17T16:17:33.094Z,8.10
2017-07-17T16:20:00.565Z,6.90
2017-07-17T16:22:28.046Z,6.90
2017-07-17T16:24:55.556Z,6.17
2017-07-17T16:27:23.028Z,6.50
2017-07-17T16:29:50.608Z,7.90
2017-07-17T16:32:18.115Z,6.67
2017-07-17T16:34:45.573Z,7.37
2017-07-17T16:37:13.079Z,5.60
2017-07-17T16:39:40.592Z,6.43
2017-07-17T16:42:08.078Z,6.60
2017-07-17T16:44:35.551Z,6.40
2017-07-17T16:47:03.037Z,6.10
2017-07-17T16:49:30.529Z,5.70
2017-07-17T16:51:58.008Z,6.17
2017-07-17T16:54:25.494Z,7.17
2017-07-17T16:56:52.989Z,5.80
2017-07-17T16:59:20.458Z,6.70
2017-07-17T17:01:48.001Z,5.27
2017-07-17T17:04:15.510Z,7.00
2017-07-17T17:06:42.982Z,6.03
2017-07-17T17:09:10.487Z,7.03
2017-07-17T17:11:37.945Z,5.70
2017-07-17T17:14:05.494Z,6.43
2017-07-17T17:16:32.958Z,6.17
2017-07-17T17:19:00.502Z,7.00
2017-07-17T17:21:27.972Z,5.93
2017-07-17T17:23:55.461Z,7.80
2017-07-17T17:26:22.926Z,5.97
2017-07-17T17:28:50.405Z,7.03
2017-07-17T17:31:17.939Z,5.73
2017-07-17T17:33:45.441Z,6.70
2017-07-17T17:36:12.919Z,6.13
2017-07-17T17:38:40.528Z,5.80
2017-07-17T17:41:07.986Z,6.23
2017-07-17T17:43:35.460Z,5.20
2017-07-17T17:46:02.942Z,4.97
2017-07-17T17:48:30.465Z,5.50
2017-07-17T17:50:57.938Z,5.57
2017-07-17T17:53:25.420Z,5.50
2017-07-17T17:55:52.953Z,4.97
2017-07-17T17:58:20.449Z,5.20
2017-07-17T18:00:47.912Z,5.83
2017-07-17T18:03:15.833Z,5.40
2017-07-17T18:05:43.357Z,6.47
2017-07-17T18:08:10.837Z,6.10
2017-07-17T18:10:38.339Z,6.80
2017-07-17T18:13:05.885Z,7.80
2017-07-17T18:15:33.384Z,6.77
2017-07-17T18:18:00.850Z,8.00
2017-07-17T18:20:28.363Z,7.50
2017-07-17T18:22:55.910Z,6.60
2017-07-17T18:25:23.398Z,7.20
2017-07-17T18:27:50.925Z,7.70
2017-07-17T18:30:18.486Z,6.97
2017-07-17T18:32:45.949Z,7.07
2017-07-17T18:35:13.429Z,7.37
2017-07-17T18:37:40.961Z,7.70
2017-07-17T18:40:08.443Z,7.53
2017-07-17T18:42:35.905Z,7.27
2017-07-17T18:45:03.473Z,7.60
2017-07-17T18:47:30.989Z,7.00
2017-07-17T18:49:58.591Z,7.30
2017-07-17T18:52:26.258Z,8.00
2017-07-17T18:54:53.771Z,6.50
2017-07-17T18:57:21.333Z,7.53
2017-07-17T18:59:48.881Z,6.80
2017-07-17T19:02:16.441Z,7.40
2017-07-17T19:04:43.997Z,7.90
2017-07-17T19:07:11.493Z,6.07
2017-07-17T19:09:39.020Z,5.73
2017-07-17T19:12:06.502Z,5.13
2017-07-17T19:14:33.969Z,6.37
2017-07-17T19:17:01.489Z,5.17
2017-07-17T19:19:29.091Z,5.03
2017-07-17T19:21:56.649Z,5.00
2017-07-17T19:24:24.119Z,4.73
2017-07-17T19:26:51.596Z,4.17
2017-07-17T19:29:19.082Z,3.93
2017-07-17T19:31:46.562Z,3.20
2017-07-17T19:34:14.099Z,3.67
2017-07-17T19:36:41.649Z,3.33
2017-07-17T19:39:09.209Z,3.57
2017-07-17T19:41:36.689Z,3.80
2017-07-17T19:44:04.150Z,3.60
2017-07-17T19:46:31.686Z,3.60
2017-07-17T19:48:59.165Z,3.33
2017-07-17T19:51:26.702Z,2.83
2017-07-17T19:53:54.253Z,3.90
2017-07-17T19:56:21.726Z,3.00
2017-07-17T19:58:49.185Z,2.77
2017-07-17T20:01:16.729Z,2.50
2017-07-17T20:03:44.205Z,2.57
2017-07-17T20:06:11.670Z,2.23
2017-07-17T20:08:39.197Z,2.23
2017-07-17T20:11:06.658Z,2.90
2017-07-17T20:13:34.262Z,2.47
2017-07-17T20:16:01.785Z,2.83
2017-07-17T20:18:29.736Z,2.00
2017-07-17T20:20:57.300Z,1.80
2017-07-17T20:23:24.780Z,2.13
2017-07-17T20:25:52.318Z,2.03
2017-07-17T20:28:19.802Z,1.93
2017-07-17T20:30:47.285Z,2.53
2017-07-17T20:33:14.789Z,1.60
2017-07-17T20:35:42.300Z,2.20
2017-07-17T20:38:09.798Z,2.00
2017-07-17T20:40:37.361Z,2.20
2017-07-17T20:43:04.941Z,1.80
2017-07-17T20:45:32.401Z,2.47
2017-07-17T20:47:59.939Z,2.53
2017-07-17T20:50:27.486Z,2.50
2017-07-17T20:52:55.157Z,2.13
2017-07-17T20:55:22.622Z,2.60
2017-07-17T20:57:50.176Z,2.20
2017-07-17T21:00:17.726Z,2.37
2017-07-17T21:02:45.290Z,1.77
2017-07-17T21:05:12.849Z,2.37
2017-07-17T21:07:40.346Z,1.90
2017-07-17T21:10:07.833Z,2.53
2017-07-17T21:12:35.304Z,2.60
2017-07-17T21:15:02.809Z,2.27
2017-07-17T21:17:30.376Z,2.60
2017-07-17T21:19:57.861Z,2.73
2017-07-17T21:22:25.349Z,2.43
2017-07-17T21:24:52.909Z,3.40
2017-07-17T21:27:20.367Z,3.13
2017-07-17T21:29:47.849Z,2.30
2017-07-17T21:32:15.316Z,2.07
2017-07-17T21:34:42.834Z,2.30
2017-07-17T21:37:10.293Z,2.80
2017-07-17T21:39:37.846Z,2.30
2017-07-17T21:42:05.329Z,2.10
2017-07-17T21:44:33.585Z,2.60
2017-07-17T21:47:01.196Z,2.20
2017-07-17T21:49:28.697Z,2.90
2017-07-17T21:51:56.250Z,2.33
2017-07-17T21:54:23.730Z,2.30
2017-07-17T21:56:51.194Z,2.20
2017-07-17T21:59:18.684Z,2.50
2017-07-17T22:01:46.181Z,2.40
2017-07-17T22:04:13.686Z,2.30
2017-07-17T22:06:41.174Z,2.27
2017-07-17T22:09:08.657Z,2.03
2017-07-17T22:11:36.260Z,2.33
2017-07-17T22:14:03.731Z,1.63
2017-07-17T22:16:31.281Z,3.00
2017-07-17T22:18:58.740Z,2.07
2017-07-17T22:21:26.217Z,2.43
2017-07-17T22:23:53.729Z,2.03
2017-07-17T22:26:21.218Z,2.17
2017-07-17T22:28:48.722Z,2.33
2017-07-17T22:31:16.273Z,3.20
2017-07-17T22:33:43.732Z,1.60
2017-07-17T22:36:11.336Z,2.30
2017-07-17T22:38:38.802Z,2.33
2017-07-17T22:41:06.305Z,1.97
2017-07-17T22:43:33.861Z,2.93
2017-07-17T22:46:01.372Z,2.50
2017-07-17T22:48:28.836Z,2.40
2017-07-17T22:50:56.329Z,2.27
2017-07-17T22:53:23.825Z,2.30
2017-07-17T22:55:51.324Z,2.20
2017-07-17T22:58:18.949Z,2.50
2017-07-17T23:00:46.433Z,2.83
2017-07-17T23:03:13.922Z,2.40
2017-07-17T23:05:41.425Z,2.20
2017-07-17T23:08:08.915Z,2.53
2017-07-17T23:10:36.374Z,2.87
2017-07-17T23:13:03.865Z,2.80
2017-07-17T23:15:31.412Z,2.20
2017-07-17T23:17:58.997Z,2.67
2017-07-17T23:20:26.470Z,3.17
2017-07-17T23:22:53.957Z,3.30
2017-07-17T23:25:21.444Z,3.00
2017-07-17T23:27:48.999Z,3.30
2017-07-17T23:30:16.567Z,2.53
2017-07-17T23:32:44.046Z,2.80
2017-07-17T23:35:11.510Z,3.00
2017-07-17T23:37:39.049Z,3.17
2017-07-17T23:40:06.588Z,3.20
2017-07-17T23:42:34.083Z,2.83
2017-07-17T23:45:01.574Z,2.50
2017-07-17T23:47:29.185Z,2.60
2017-07-17T23:49:56.768Z,3.53
2017-07-17T23:52:24.250Z,2.90
2017-07-17T23:54:51.709Z,3.03
2017-07-17T23:57:19.188Z,2.73
2017-07-17T23:59:46.695Z,2.40
